createdAt,value
2019-05-05T00:02:04.473Z,1.30
2019-05-05T00:04:50.714Z,1.40
2019-05-05T00:07:25.410Z,1.40
2019-05-05T00:09:55.088Z,1.40
2019-05-05T00:12:34.784Z,1.40
2019-05-05T00:15:24.957Z,1.40
2019-05-05T00:17:55.023Z,1.40
2019-05-05T00:20:25.069Z,1.40
2019-05-05T00:22:54.684Z,1.40
2019-05-05T00:25:24.938Z,1.40
2019-05-05T00:27:54.581Z,1.40
2019-05-05T00:30:24.946Z,1.30
2019-05-05T00:32:54.894Z,1.30
2019-05-05T00:35:25.265Z,1.30
2019-05-05T00:37:54.511Z,1.20
2019-05-05T00:40:24.802Z,1.20
2019-05-05T00:42:54.772Z,1.10
2019-05-05T00:45:25.267Z,1.10
2019-05-05T00:48:04.674Z,1.10
2019-05-05T00:50:34.413Z,1.00
2019-05-05T00:53:05.252Z,1.00
2019-05-05T00:55:34.978Z,1.00
2019-05-05T00:58:05.268Z,1.00
2019-05-05T01:00:45.568Z,1.10
2019-05-05T01:03:15.299Z,1.10
2019-05-05T01:05:50.510Z,1.10
2019-05-05T01:08:21.472Z,1.20
2019-05-05T01:10:50.442Z,1.30
2019-05-05T01:13:19.392Z,1.30
2019-05-05T01:15:48.325Z,1.40
2019-05-05T01:18:17.624Z,1.40
2019-05-05T01:20:46.596Z,1.40
2019-05-05T01:23:15.673Z,1.40
2019-05-05T01:25:47.118Z,1.50
2019-05-05T01:28:16.296Z,1.50
2019-05-05T01:30:47.648Z,1.60
2019-05-05T01:33:40.175Z,1.60
2019-05-05T01:36:09.265Z,1.70
2019-05-05T01:38:44.740Z,1.70
2019-05-05T01:41:20.638Z,1.80
2019-05-05T01:43:49.889Z,1.80
2019-05-05T01:46:18.986Z,1.80
2019-05-05T01:48:47.983Z,1.80
2019-05-05T01:51:17.148Z,1.90
2019-05-05T01:53:46.149Z,1.90
2019-05-05T01:56:15.471Z,1.80
2019-05-05T01:58:45.081Z,1.70
2019-05-05T02:01:15.264Z,1.60
2019-05-05T02:03:44.798Z,1.50
2019-05-05T02:06:14.275Z,1.50
2019-05-05T02:08:45.278Z,1.40
2019-05-05T02:11:15.602Z,1.40
2019-05-05T02:13:45.122Z,1.40
2019-05-05T02:16:15.076Z,1.50
2019-05-05T02:18:45.065Z,1.40
2019-05-05T02:21:14.320Z,1.40
2019-05-05T02:23:45.176Z,1.40
2019-05-05T02:26:15.291Z,1.50
2019-05-05T02:28:54.154Z,1.40
2019-05-05T02:31:29.891Z,1.40
2019-05-05T02:33:58.808Z,1.40
2019-05-05T02:36:27.713Z,1.40
2019-05-05T02:38:56.876Z,1.40
2019-05-05T02:41:25.946Z,1.40
2019-05-05T02:43:55.868Z,1.50
2019-05-05T02:46:35.831Z,1.40
2019-05-05T02:49:05.573Z,1.40
2019-05-05T02:51:36.007Z,1.40
2019-05-05T02:54:05.168Z,1.40
2019-05-05T02:56:43.625Z,1.40
2019-05-05T02:59:19.131Z,1.40
2019-05-05T03:02:10.295Z,1.50
2019-05-05T03:04:40.009Z,1.50
2019-05-05T03:07:10.504Z,1.50
2019-05-05T03:09:40.561Z,1.40
2019-05-05T03:12:11.156Z,1.40
2019-05-05T03:14:41.682Z,1.40
2019-05-05T03:17:14.339Z,1.40
2019-05-05T03:19:44.478Z,1.30
2019-05-05T03:22:14.313Z,1.30
2019-05-05T03:24:44.654Z,1.20
2019-05-05T03:27:14.319Z,1.20
2019-05-05T03:29:44.224Z,1.20
2019-05-05T03:32:16.164Z,1.30
2019-05-05T03:34:44.606Z,1.20
2019-05-05T03:37:14.579Z,1.20
2019-05-05T03:39:47.748Z,1.20
2019-05-05T03:42:47.671Z,1.20
2019-05-05T03:45:29.675Z,1.20
2019-05-05T03:47:58.670Z,1.20
2019-05-05T03:50:27.933Z,1.20
2019-05-05T03:52:56.818Z,1.30
2019-05-05T03:55:25.580Z,1.40
2019-05-05T03:57:55.204Z,1.50
2019-05-05T04:00:45.539Z,1.60
2019-05-05T04:03:14.719Z,1.70
2019-05-05T04:05:53.758Z,1.80
2019-05-05T04:08:23.538Z,1.90
2019-05-05T04:10:54.481Z,1.90
2019-05-05T04:13:24.264Z,2.00
2019-05-05T04:16:14.340Z,2.10
2019-05-05T04:18:50.039Z,2.10
2019-05-05T04:21:30.379Z,2.20
2019-05-05T04:23:49.344Z,2.20
2019-05-05T04:26:18.334Z,2.30
2019-05-05T04:28:47.355Z,2.30
2019-05-05T04:31:16.413Z,2.40
2019-05-05T04:33:45.218Z,2.50
2019-05-05T04:36:14.550Z,2.50
2019-05-05T04:38:43.956Z,2.60
2019-05-05T04:41:14.010Z,2.60
2019-05-05T04:43:44.204Z,2.70
2019-05-05T04:46:14.106Z,2.70
2019-05-05T04:48:57.542Z,2.80
2019-05-05T04:51:43.445Z,2.90
2019-05-05T04:54:14.052Z,3.00
2019-05-05T04:56:44.364Z,3.10
2019-05-05T04:59:14.402Z,3.20
2019-05-05T05:01:44.032Z,3.40
2019-05-05T05:04:35.363Z,3.60
2019-05-05T05:07:04.723Z,3.80
2019-05-05T05:09:34.167Z,3.80
2019-05-05T05:12:04.030Z,3.80
2019-05-05T05:14:33.816Z,3.90
2019-05-05T05:17:04.402Z,3.90
2019-05-05T05:19:33.566Z,4.00
2019-05-05T05:22:04.844Z,4.00
2019-05-05T05:24:34.359Z,4.00
2019-05-05T05:27:05.058Z,4.00
2019-05-05T05:29:34.516Z,3.90
2019-05-05T05:32:04.278Z,4.00
2019-05-05T05:34:34.396Z,4.20
2019-05-05T05:37:04.194Z,4.40
2019-05-05T05:39:43.940Z,4.70
2019-05-05T05:42:13.746Z,4.80
2019-05-05T05:45:04.053Z,4.90
2019-05-05T05:47:53.688Z,4.80
2019-05-05T05:50:26.615Z,4.90
2019-05-05T05:52:55.606Z,5.10
2019-05-05T05:55:24.620Z,5.30
2019-05-05T05:57:54.279Z,5.60
2019-05-05T06:00:23.746Z,5.60
2019-05-05T06:02:54.426Z,5.80
2019-05-05T06:05:23.765Z,5.80
2019-05-05T06:07:54.465Z,5.90
2019-05-05T06:10:27.149Z,5.90
2019-05-05T06:12:55.147Z,5.90
2019-05-05T06:15:24.549Z,6.10
2019-05-05T06:17:54.021Z,6.10
2019-05-05T06:20:23.825Z,6.30
2019-05-05T06:22:53.523Z,6.40
2019-05-05T06:25:26.232Z,6.60
2019-05-05T06:27:54.099Z,6.70
2019-05-05T06:30:24.357Z,7.00
2019-05-05T06:32:54.431Z,7.20
2019-05-05T06:35:24.461Z,7.20
2019-05-05T06:37:54.244Z,7.50
2019-05-05T06:40:31.559Z,7.50
2019-05-05T06:43:16.655Z,7.90
2019-05-05T06:45:49.688Z,8.00
2019-05-05T06:48:18.455Z,8.30
2019-05-05T06:50:47.223Z,8.30
2019-05-05T06:53:16.302Z,8.60
2019-05-05T06:55:45.422Z,8.90
2019-05-05T06:58:14.430Z,9.40
2019-05-05T07:00:44.213Z,10.00
2019-05-05T07:03:13.898Z,10.30
2019-05-05T07:05:43.694Z,10.80
2019-05-05T07:08:13.825Z,12.20
2019-05-05T07:10:44.461Z,12.90
2019-05-05T07:13:13.999Z,13.70
2019-05-05T07:15:43.778Z,14.00
2019-05-05T07:18:14.231Z,14.10
2019-05-05T07:20:44.081Z,13.70
2019-05-05T07:23:14.500Z,12.30
2019-05-05T07:25:45.919Z,11.50
2019-05-05T07:28:14.835Z,10.90
2019-05-05T07:30:44.251Z,10.80
2019-05-05T07:33:14.863Z,11.50
2019-05-05T07:35:59.404Z,13.10
2019-05-05T07:38:24.396Z,13.60
2019-05-05T07:40:54.483Z,12.90
2019-05-05T07:43:24.015Z,12.40
2019-05-05T07:45:54.033Z,11.50
2019-05-05T07:48:24.623Z,11.20
2019-05-05T07:51:01.552Z,10.90
2019-05-05T07:53:24.516Z,10.60
2019-05-05T07:55:54.162Z,10.30
2019-05-05T07:58:24.260Z,10.30
2019-05-05T08:00:54.130Z,10.90
2019-05-05T08:03:23.681Z,11.20
2019-05-05T08:05:54.364Z,12.00
2019-05-05T08:08:24.421Z,13.10
2019-05-05T08:10:54.170Z,13.90
2019-05-05T08:13:24.356Z,13.60
2019-05-05T08:15:59.826Z,13.20
2019-05-05T08:18:47.464Z,13.40
2019-05-05T08:21:16.449Z,13.60
2019-05-05T08:24:05.806Z,12.50
2019-05-05T08:26:49.828Z,12.10
2019-05-05T08:29:40.236Z,12.80
2019-05-05T08:32:17.594Z,13.10
2019-05-05T08:34:56.854Z,13.10
2019-05-05T08:37:17.486Z,13.10
2019-05-05T08:39:46.828Z,12.20
2019-05-05T08:42:15.641Z,12.30
2019-05-05T08:44:44.907Z,12.90
2019-05-05T08:47:14.166Z,13.20
2019-05-05T08:49:44.219Z,13.30
2019-05-05T08:52:14.523Z,13.30
2019-05-05T08:54:44.651Z,14.30
2019-05-05T08:57:14.667Z,13.90
2019-05-05T08:59:43.996Z,13.90
2019-05-05T09:02:15.000Z,13.30
2019-05-05T09:04:44.689Z,12.80
2019-05-05T09:07:15.876Z,12.80
2019-05-05T09:09:44.935Z,13.40
2019-05-05T09:12:14.164Z,14.40
2019-05-05T09:14:44.894Z,14.20
2019-05-05T09:17:13.831Z,14.90
2019-05-05T09:19:44.737Z,15.70
2019-05-05T09:22:13.990Z,15.70
2019-05-05T09:25:08.623Z,14.60
2019-05-05T09:27:44.886Z,14.50
2019-05-05T09:30:17.176Z,15.30
2019-05-05T09:32:47.737Z,15.20
2019-05-05T09:35:16.926Z,14.60
2019-05-05T09:37:46.030Z,13.80
2019-05-05T09:40:18.008Z,12.90
2019-05-05T09:42:46.812Z,12.50
2019-05-05T09:45:16.020Z,12.10
2019-05-05T09:47:45.067Z,11.50
2019-05-05T09:50:14.471Z,11.40
2019-05-05T09:52:44.340Z,11.20
2019-05-05T09:55:13.953Z,12.00
2019-05-05T09:57:43.792Z,13.00
2019-05-05T10:00:14.179Z,13.90
2019-05-05T10:02:44.126Z,14.30
2019-05-05T10:05:14.542Z,13.70
2019-05-05T10:07:44.051Z,13.20
2019-05-05T10:10:13.886Z,12.50
2019-05-05T10:12:44.580Z,12.20
2019-05-05T10:15:13.965Z,12.70
2019-05-05T10:17:43.201Z,12.90
2019-05-05T10:20:14.545Z,13.00
2019-05-05T10:22:43.891Z,14.10
2019-05-05T10:25:50.329Z,14.90
2019-05-05T10:28:19.180Z,15.30
2019-05-05T10:30:48.420Z,15.80
2019-05-05T10:33:18.634Z,15.80
2019-05-05T10:35:48.873Z,15.30
2019-05-05T10:38:17.843Z,14.70
2019-05-05T10:40:48.320Z,14.80
2019-05-05T10:43:17.309Z,14.90
2019-05-05T10:45:46.299Z,15.00
2019-05-05T10:48:15.227Z,14.80
2019-05-05T10:50:44.524Z,14.50
2019-05-05T10:53:13.783Z,14.10
2019-05-05T10:55:44.848Z,13.40
2019-05-05T10:58:13.873Z,13.10
2019-05-05T11:00:56.919Z,13.00
2019-05-05T11:03:25.868Z,13.10
2019-05-05T11:05:56.117Z,13.30
2019-05-05T11:08:25.422Z,13.10
2019-05-05T11:10:56.960Z,13.30
2019-05-05T11:13:27.104Z,13.70
2019-05-05T11:15:56.197Z,14.00
2019-05-05T11:18:25.454Z,14.40
2019-05-05T11:21:03.897Z,14.60
2019-05-05T11:23:44.636Z,14.50
2019-05-05T11:26:16.538Z,14.50
2019-05-05T11:28:59.261Z,14.20
2019-05-05T11:31:30.486Z,14.10
2019-05-05T11:34:11.400Z,13.90
2019-05-05T11:36:54.369Z,13.60
2019-05-05T11:39:25.127Z,13.30
2019-05-05T11:41:59.405Z,12.80
2019-05-05T11:44:30.914Z,12.40
2019-05-05T11:47:04.821Z,12.40
2019-05-05T11:49:37.394Z,12.50
2019-05-05T11:52:07.066Z,12.60
2019-05-05T11:54:38.603Z,12.50
2019-05-05T11:57:07.883Z,12.70
2019-05-05T11:59:49.863Z,12.70
2019-05-05T12:02:24.309Z,12.90
2019-05-05T12:04:54.044Z,12.90
2019-05-05T12:07:23.740Z,13.00
2019-05-05T12:09:57.130Z,12.80
2019-05-05T12:12:26.710Z,12.60
2019-05-05T12:14:55.994Z,12.50
2019-05-05T12:17:34.845Z,12.50
2019-05-05T12:20:08.303Z,12.10
2019-05-05T12:22:37.519Z,12.30
2019-05-05T12:25:28.418Z,12.70
2019-05-05T12:28:04.474Z,12.90
2019-05-05T12:30:33.867Z,13.00
2019-05-05T12:33:04.656Z,13.10
2019-05-05T12:35:48.671Z,13.10
2019-05-05T12:38:18.497Z,13.40
2019-05-05T12:40:47.360Z,13.40
2019-05-05T12:43:16.185Z,13.40
2019-05-05T12:45:47.668Z,13.40
2019-05-05T12:48:21.348Z,13.50
2019-05-05T12:50:50.195Z,13.40
2019-05-05T12:53:19.014Z,13.10
2019-05-05T12:55:48.507Z,12.90
2019-05-05T12:58:17.288Z,12.70
2019-05-05T13:00:54.088Z,12.40
2019-05-05T13:03:23.991Z,12.20
2019-05-05T13:05:53.552Z,12.10
2019-05-05T13:08:23.460Z,12.20
2019-05-05T13:10:53.476Z,12.10
2019-05-05T13:13:22.363Z,12.00
2019-05-05T13:15:51.236Z,11.90
2019-05-05T13:18:20.063Z,11.80
2019-05-05T13:20:59.331Z,11.80
2019-05-05T13:23:37.762Z,11.70
2019-05-05T13:26:28.877Z,11.70
2019-05-05T13:28:57.654Z,11.70
2019-05-05T13:31:26.980Z,11.50
2019-05-05T13:33:55.952Z,11.40
2019-05-05T13:36:24.730Z,11.40
2019-05-05T13:38:54.587Z,11.40
2019-05-05T13:41:23.508Z,11.40
2019-05-05T13:43:53.952Z,11.40
2019-05-05T13:46:28.020Z,11.20
2019-05-05T13:49:18.088Z,11.20
2019-05-05T13:51:46.888Z,11.30
2019-05-05T13:54:15.815Z,11.10
2019-05-05T13:56:44.716Z,11.10
2019-05-05T13:59:14.062Z,11.10
2019-05-05T14:01:44.780Z,11.20
2019-05-05T14:04:13.873Z,11.40
2019-05-05T14:06:44.458Z,11.50
2019-05-05T14:09:13.865Z,11.80
2019-05-05T14:11:44.559Z,12.10
2019-05-05T14:14:13.924Z,12.10
2019-05-05T14:16:44.609Z,12.20
2019-05-05T14:19:14.650Z,12.20
2019-05-05T14:21:44.579Z,12.00
2019-05-05T14:24:19.809Z,11.90
2019-05-05T14:26:48.828Z,11.70
2019-05-05T14:29:39.023Z,11.50
2019-05-05T14:32:08.936Z,11.40
2019-05-05T14:34:39.483Z,11.40
2019-05-05T14:37:26.181Z,11.30
2019-05-05T14:39:55.183Z,11.20
2019-05-05T14:42:23.987Z,11.00
2019-05-05T14:44:54.575Z,10.90
2019-05-05T14:47:24.456Z,10.90
2019-05-05T14:49:54.100Z,10.90
2019-05-05T14:52:24.638Z,10.90
2019-05-05T14:54:54.544Z,11.00
2019-05-05T14:57:27.985Z,11.00
2019-05-05T14:59:57.292Z,10.90
2019-05-05T15:02:28.210Z,10.90
2019-05-05T15:05:29.038Z,10.90
2019-05-05T15:08:09.652Z,10.90
2019-05-05T15:10:59.497Z,10.80
2019-05-05T15:13:28.556Z,10.70
2019-05-05T15:15:58.618Z,10.60
2019-05-05T15:18:27.634Z,10.40
2019-05-05T15:20:56.584Z,10.40
2019-05-05T15:23:25.601Z,10.40
2019-05-05T15:25:54.812Z,10.40
2019-05-05T15:28:24.565Z,10.50
2019-05-05T15:30:54.498Z,10.70
2019-05-05T15:33:24.368Z,10.70
2019-05-05T15:35:53.934Z,10.70
2019-05-05T15:38:24.443Z,10.70
2019-05-05T15:40:54.760Z,10.80
2019-05-05T15:43:24.410Z,10.80
2019-05-05T15:45:55.550Z,10.80
2019-05-05T15:48:24.442Z,10.80
2019-05-05T15:50:54.633Z,10.70
2019-05-05T15:53:23.728Z,10.60
2019-05-05T15:55:54.008Z,10.60
2019-05-05T15:58:23.609Z,10.60
2019-05-05T16:00:53.791Z,10.60
2019-05-05T16:03:22.881Z,10.50
2019-05-05T16:05:51.773Z,10.70
2019-05-05T16:08:20.712Z,10.70
2019-05-05T16:10:49.678Z,10.70
2019-05-05T16:13:18.543Z,10.80
2019-05-05T16:16:00.363Z,10.80
2019-05-05T16:18:34.200Z,10.80
2019-05-05T16:21:26.318Z,10.70
2019-05-05T16:24:00.655Z,10.50
2019-05-05T16:26:29.443Z,10.40
2019-05-05T16:28:58.435Z,10.30
2019-05-05T16:31:27.877Z,10.20
2019-05-05T16:33:56.772Z,10.20
2019-05-05T16:36:25.575Z,10.10
2019-05-05T16:38:54.395Z,10.10
2019-05-05T16:41:23.813Z,10.10
2019-05-05T16:43:53.423Z,10.00
2019-05-05T16:46:23.908Z,9.90
2019-05-05T16:48:54.142Z,9.90
2019-05-05T16:51:27.621Z,9.90
2019-05-05T16:53:58.194Z,9.90
2019-05-05T16:56:27.365Z,9.90
2019-05-05T16:58:56.545Z,10.00
2019-05-05T17:01:27.423Z,10.00
2019-05-05T17:04:08.470Z,10.00
2019-05-05T17:06:29.515Z,10.00
2019-05-05T17:08:59.506Z,10.10
2019-05-05T17:11:28.628Z,10.00
2019-05-05T17:14:25.886Z,10.00
2019-05-05T17:17:17.307Z,10.10
2019-05-05T17:20:00.451Z,10.00
2019-05-05T17:22:34.031Z,9.90
2019-05-05T17:25:05.086Z,9.80
2019-05-05T17:27:47.068Z,9.90
2019-05-05T17:30:05.052Z,9.80
2019-05-05T17:32:34.529Z,9.80
2019-05-05T17:35:03.897Z,9.70
2019-05-05T17:37:33.547Z,9.60
2019-05-05T17:40:12.446Z,9.50
2019-05-05T17:42:59.040Z,9.50
2019-05-05T17:45:34.374Z,9.40
2019-05-05T17:48:14.802Z,9.30
2019-05-05T17:50:55.829Z,9.20
2019-05-05T17:53:54.594Z,9.20
2019-05-05T17:56:23.838Z,9.20
2019-05-05T17:58:53.788Z,9.10
2019-05-05T18:01:24.428Z,9.10
2019-05-05T18:03:54.529Z,9.00
2019-05-05T18:06:34.386Z,8.90
2019-05-05T18:09:15.305Z,8.90
2019-05-05T18:12:01.925Z,8.90
2019-05-05T18:14:33.436Z,8.80
2019-05-05T18:17:04.253Z,8.70
2019-05-05T18:19:34.018Z,8.70
2019-05-05T18:22:03.454Z,8.60
2019-05-05T18:24:33.708Z,8.60
2019-05-05T18:27:04.575Z,8.50
2019-05-05T18:29:34.003Z,8.50
2019-05-05T18:32:04.314Z,8.40
2019-05-05T18:34:34.990Z,8.40
2019-05-05T18:37:04.079Z,8.30
2019-05-05T18:39:34.265Z,8.30
2019-05-05T18:42:08.663Z,8.20
2019-05-05T18:44:56.378Z,8.10
2019-05-05T18:47:26.640Z,8.10
2019-05-05T18:49:55.823Z,8.00
2019-05-05T18:52:24.726Z,8.00
2019-05-05T18:54:54.419Z,8.00
2019-05-05T18:57:24.724Z,7.90
2019-05-05T18:59:54.257Z,7.70
2019-05-05T19:02:34.789Z,7.50
2019-05-05T19:05:16.083Z,7.40
2019-05-05T19:07:55.615Z,7.30
2019-05-05T19:10:19.368Z,7.10
2019-05-05T19:12:50.847Z,7.00
2019-05-05T19:15:24.426Z,6.90
2019-05-05T19:17:53.540Z,6.70
2019-05-05T19:20:34.996Z,6.60
2019-05-05T19:23:05.270Z,6.50
2019-05-05T19:25:35.521Z,6.30
2019-05-05T19:28:04.797Z,6.20
2019-05-05T19:30:36.034Z,6.10
2019-05-05T19:33:04.870Z,6.00
2019-05-05T19:35:41.899Z,5.90
2019-05-05T19:38:05.030Z,5.80
2019-05-05T19:40:34.102Z,5.70
2019-05-05T19:43:04.769Z,5.60
2019-05-05T19:45:34.421Z,5.50
2019-05-05T19:48:05.661Z,5.50
2019-05-05T19:51:04.557Z,5.30
2019-05-05T19:53:35.202Z,5.20
2019-05-05T19:56:04.079Z,5.30
2019-05-05T19:58:34.020Z,5.20
2019-05-05T20:01:05.255Z,5.10
2019-05-05T20:03:35.163Z,5.00
2019-05-05T20:06:05.054Z,4.90
2019-05-05T20:08:40.909Z,4.80
2019-05-05T20:11:04.957Z,4.70
2019-05-05T20:13:33.960Z,4.60
2019-05-05T20:16:11.461Z,4.50
2019-05-05T20:18:40.660Z,4.40
2019-05-05T20:21:09.398Z,4.40
2019-05-05T20:23:38.533Z,4.30
2019-05-05T20:26:07.464Z,4.30
2019-05-05T20:28:36.334Z,4.20
2019-05-05T20:31:05.229Z,4.10
2019-05-05T20:33:46.788Z,4.00
2019-05-05T20:36:18.830Z,4.00
2019-05-05T20:38:49.800Z,3.90
2019-05-05T20:41:20.195Z,3.90
2019-05-05T20:43:49.367Z,3.80
2019-05-05T20:46:18.685Z,3.70
2019-05-05T20:48:48.081Z,3.70
2019-05-05T20:51:17.035Z,3.60
2019-05-05T20:53:48.892Z,3.60
2019-05-05T20:56:16.529Z,3.50
2019-05-05T20:58:45.731Z,3.50
2019-05-05T21:01:14.714Z,3.40
2019-05-05T21:03:43.566Z,3.30
2019-05-05T21:06:13.890Z,3.30
2019-05-05T21:08:43.970Z,3.30
2019-05-05T21:11:14.097Z,3.20
2019-05-05T21:13:45.016Z,3.10
2019-05-05T21:16:14.276Z,3.00
2019-05-05T21:18:43.338Z,3.00
2019-05-05T21:21:17.135Z,2.90
2019-05-05T21:23:50.032Z,2.90
2019-05-05T21:26:26.064Z,2.80
2019-05-05T21:28:54.904Z,2.80
2019-05-05T21:31:24.070Z,2.70
2019-05-05T21:33:54.875Z,2.70
2019-05-05T21:36:24.337Z,2.60
2019-05-05T21:38:54.730Z,2.50
2019-05-05T21:41:24.526Z,2.50
2019-05-05T21:43:54.110Z,2.50
2019-05-05T21:46:24.036Z,2.40
2019-05-05T21:48:54.344Z,2.30
2019-05-05T21:51:41.227Z,2.30
2019-05-05T21:54:30.371Z,2.30
2019-05-05T21:57:34.553Z,2.20
2019-05-05T22:00:05.837Z,2.20
2019-05-05T22:02:36.084Z,2.20
2019-05-05T22:05:05.395Z,2.10
2019-05-05T22:07:34.405Z,2.10
2019-05-05T22:10:04.485Z,2.00
2019-05-05T22:12:36.120Z,2.00
2019-05-05T22:15:04.412Z,2.00
2019-05-05T22:17:33.614Z,1.90
2019-05-05T22:20:10.929Z,1.90
2019-05-05T22:22:41.343Z,1.90
2019-05-05T22:25:10.166Z,1.90
2019-05-05T22:27:39.418Z,1.90
2019-05-05T22:30:10.279Z,1.90
2019-05-05T22:32:39.921Z,1.90
2019-05-05T22:35:08.879Z,1.80
2019-05-05T22:37:37.620Z,1.90
2019-05-05T22:40:06.886Z,1.80
2019-05-05T22:42:35.969Z,1.80
2019-05-05T22:45:05.216Z,1.80
2019-05-05T22:47:34.630Z,1.90
2019-05-05T22:50:04.421Z,1.90
2019-05-05T22:52:34.332Z,1.90
2019-05-05T22:55:04.557Z,1.80
2019-05-05T22:57:34.434Z,1.80
2019-05-05T23:00:03.841Z,1.80
2019-05-05T23:02:34.839Z,1.70
2019-05-05T23:05:10.092Z,1.70
2019-05-05T23:07:38.893Z,1.70
2019-05-05T23:10:07.815Z,1.70
2019-05-05T23:12:36.816Z,1.60
2019-05-05T23:15:06.459Z,1.60
2019-05-05T23:17:43.704Z,1.60
2019-05-05T23:20:30.248Z,1.50
2019-05-05T23:23:07.604Z,1.50
2019-05-05T23:25:39.961Z,1.50
2019-05-05T23:28:08.807Z,1.40
2019-05-05T23:30:41.470Z,1.40
2019-05-05T23:33:08.221Z,1.30
2019-05-05T23:35:37.135Z,1.30
2019-05-05T23:38:05.991Z,1.20
2019-05-05T23:40:34.852Z,1.20
2019-05-05T23:43:04.497Z,1.20
2019-05-05T23:45:34.062Z,1.10
2019-05-05T23:48:03.720Z,1.10
2019-05-05T23:50:33.839Z,1.10
2019-05-05T23:53:02.852Z,1.10
2019-05-05T23:55:31.619Z,1.10
2019-05-05T23:58:00.451Z,1.10
